sensor_id;sensor_type;location;lat;lon;timestamp;temperature;humidity
30304;DHT22;17112;48.636;10.152;2023-07-13T00:01:35;21.50;67.40
30304;DHT22;17112;48.636;10.152;2023-07-13T00:04:01;21.50;67.30
30304;DHT22;17112;48.636;10.152;2023-07-13T00:06:27;21.50;67.30
30304;DHT22;17112;48.636;10.152;2023-07-13T00:08:59;21.50;67.20
30304;DHT22;17112;48.636;10.152;2023-07-13T00:11:24;21.40;67.00
30304;DHT22;17112;48.636;10.152;2023-07-13T00:13:51;21.40;66.70
30304;DHT22;17112;48.636;10.152;2023-07-13T00:16:17;21.40;66.60
30304;DHT22;17112;48.636;10.152;2023-07-13T00:18:44;21.40;66.80
30304;DHT22;17112;48.636;10.152;2023-07-13T00:21:11;21.40;66.50
30304;DHT22;17112;48.636;10.152;2023-07-13T00:23:40;21.40;66.50
30304;DHT22;17112;48.636;10.152;2023-07-13T00:26:08;21.40;66.60
30304;DHT22;17112;48.636;10.152;2023-07-13T00:28:34;21.40;66.30
30304;DHT22;17112;48.636;10.152;2023-07-13T00:31:01;21.40;66.30
30304;DHT22;17112;48.636;10.152;2023-07-13T00:33:28;21.40;66.60
30304;DHT22;17112;48.636;10.152;2023-07-13T00:35:55;21.40;66.90
30304;DHT22;17112;48.636;10.152;2023-07-13T00:38:22;21.30;66.90
30304;DHT22;17112;48.636;10.152;2023-07-13T00:40:48;21.30;66.90
30304;DHT22;17112;48.636;10.152;2023-07-13T00:43:20;21.30;67.00
30304;DHT22;17112;48.636;10.152;2023-07-13T00:48:17;21.30;67.40
30304;DHT22;17112;48.636;10.152;2023-07-13T00:50:45;21.30;67.60
30304;DHT22;17112;48.636;10.152;2023-07-13T00:53:12;21.30;67.60
30304;DHT22;17112;48.636;10.152;2023-07-13T00:55:39;21.30;67.60
30304;DHT22;17112;48.636;10.152;2023-07-13T00:58:05;21.30;67.50
30304;DHT22;17112;48.636;10.152;2023-07-13T01:00:34;21.30;67.60
30304;DHT22;17112;48.636;10.152;2023-07-13T01:03:00;21.30;67.50
30304;DHT22;17112;48.636;10.152;2023-07-13T01:05:30;21.30;67.50
30304;DHT22;17112;48.636;10.152;2023-07-13T01:07:57;21.30;67.30
30304;DHT22;17112;48.636;10.152;2023-07-13T01:10:25;21.30;67.40
30304;DHT22;17112;48.636;10.152;2023-07-13T01:12:51;21.30;67.40
30304;DHT22;17112;48.636;10.152;2023-07-13T01:18:18;21.30;67.80
30304;DHT22;17112;48.636;10.152;2023-07-13T01:23:18;21.30;67.30
30304;DHT22;17112;48.636;10.152;2023-07-13T01:25:44;21.20;67.10
30304;DHT22;17112;48.636;10.152;2023-07-13T01:28:10;21.20;67.10
30304;DHT22;17112;48.636;10.152;2023-07-13T01:30:37;21.20;67.10
30304;DHT22;17112;48.636;10.152;2023-07-13T01:33:06;21.20;67.10
30304;DHT22;17112;48.636;10.152;2023-07-13T01:35:33;21.10;67.20
30304;DHT22;17112;48.636;10.152;2023-07-13T01:37:58;21.10;67.10
30304;DHT22;17112;48.636;10.152;2023-07-13T01:40:25;21.10;67.00
30304;DHT22;17112;48.636;10.152;2023-07-13T01:42:51;21.00;66.90
30304;DHT22;17112;48.636;10.152;2023-07-13T01:45:17;21.00;66.90
30304;DHT22;17112;48.636;10.152;2023-07-13T01:47:42;21.00;66.80
30304;DHT22;17112;48.636;10.152;2023-07-13T01:50:08;21.00;66.90
30304;DHT22;17112;48.636;10.152;2023-07-13T01:52:34;21.00;66.90
30304;DHT22;17112;48.636;10.152;2023-07-13T01:55:00;21.00;66.50
30304;DHT22;17112;48.636;10.152;2023-07-13T01:57:26;20.90;66.60
30304;DHT22;17112;48.636;10.152;2023-07-13T01:59:51;20.90;65.20
30304;DHT22;17112;48.636;10.152;2023-07-13T02:02:17;20.90;64.90
30304;DHT22;17112;48.636;10.152;2023-07-13T02:04:42;20.90;64.60
30304;DHT22;17112;48.636;10.152;2023-07-13T02:07:09;20.90;64.60
30304;DHT22;17112;48.636;10.152;2023-07-13T02:09:35;20.90;64.40
30304;DHT22;17112;48.636;10.152;2023-07-13T02:12:00;20.90;63.80
30304;DHT22;17112;48.636;10.152;2023-07-13T02:14:26;20.80;63.40
30304;DHT22;17112;48.636;10.152;2023-07-13T02:16:52;20.80;63.10
30304;DHT22;17112;48.636;10.152;2023-07-13T02:19:17;20.80;62.90
30304;DHT22;17112;48.636;10.152;2023-07-13T02:21:43;20.80;62.50
30304;DHT22;17112;48.636;10.152;2023-07-13T02:24:09;20.80;62.20
30304;DHT22;17112;48.636;10.152;2023-07-13T02:26:34;20.70;62.00
30304;DHT22;17112;48.636;10.152;2023-07-13T02:29:01;20.70;62.00
30304;DHT22;17112;48.636;10.152;2023-07-13T02:31:27;20.70;61.40
30304;DHT22;17112;48.636;10.152;2023-07-13T02:33:52;20.70;61.20
30304;DHT22;17112;48.636;10.152;2023-07-13T02:36:18;20.60;60.30
30304;DHT22;17112;48.636;10.152;2023-07-13T02:38:49;20.60;60.10
30304;DHT22;17112;48.636;10.152;2023-07-13T02:41:19;20.60;59.80
30304;DHT22;17112;48.636;10.152;2023-07-13T02:43:45;20.60;59.50
30304;DHT22;17112;48.636;10.152;2023-07-13T02:46:10;20.60;59.60
30304;DHT22;17112;48.636;10.152;2023-07-13T02:48:38;20.60;59.70
30304;DHT22;17112;48.636;10.152;2023-07-13T02:51:04;20.60;59.30
30304;DHT22;17112;48.636;10.152;2023-07-13T02:53:30;20.60;59.20
30304;DHT22;17112;48.636;10.152;2023-07-13T02:55:56;20.60;58.90
30304;DHT22;17112;48.636;10.152;2023-07-13T02:58:22;20.60;58.90
30304;DHT22;17112;48.636;10.152;2023-07-13T03:00:48;20.50;58.80
30304;DHT22;17112;48.636;10.152;2023-07-13T03:03:16;20.50;58.80
30304;DHT22;17112;48.636;10.152;2023-07-13T03:05:44;20.50;58.70
30304;DHT22;17112;48.636;10.152;2023-07-13T03:08:11;20.50;58.40
30304;DHT22;17112;48.636;10.152;2023-07-13T03:10:37;20.50;58.40
30304;DHT22;17112;48.636;10.152;2023-07-13T03:13:05;20.40;58.30
30304;DHT22;17112;48.636;10.152;2023-07-13T03:15:30;20.40;58.20
30304;DHT22;17112;48.636;10.152;2023-07-13T03:17:56;20.40;58.50
30304;DHT22;17112;48.636;10.152;2023-07-13T03:20:22;20.40;58.70
30304;DHT22;17112;48.636;10.152;2023-07-13T03:22:47;20.30;58.50
30304;DHT22;17112;48.636;10.152;2023-07-13T03:25:13;20.30;58.60
30304;DHT22;17112;48.636;10.152;2023-07-13T03:27:39;20.30;58.40
30304;DHT22;17112;48.636;10.152;2023-07-13T03:30:06;20.20;58.30
30304;DHT22;17112;48.636;10.152;2023-07-13T03:32:32;20.20;58.30
30304;DHT22;17112;48.636;10.152;2023-07-13T03:34:58;20.20;58.30
30304;DHT22;17112;48.636;10.152;2023-07-13T03:37:24;20.10;58.40
30304;DHT22;17112;48.636;10.152;2023-07-13T03:39:50;20.10;58.40
30304;DHT22;17112;48.636;10.152;2023-07-13T03:42:16;20.10;58.10
30304;DHT22;17112;48.636;10.152;2023-07-13T03:44:42;20.00;57.80
30304;DHT22;17112;48.636;10.152;2023-07-13T03:47:11;20.00;57.80
30304;DHT22;17112;48.636;10.152;2023-07-13T03:49:37;20.00;57.80
30304;DHT22;17112;48.636;10.152;2023-07-13T03:52:03;19.90;57.50
30304;DHT22;17112;48.636;10.152;2023-07-13T03:54:29;19.90;57.70
30304;DHT22;17112;48.636;10.152;2023-07-13T03:56:55;19.90;57.60
30304;DHT22;17112;48.636;10.152;2023-07-13T03:59:21;19.90;57.80
30304;DHT22;17112;48.636;10.152;2023-07-13T04:01:47;19.90;57.70
30304;DHT22;17112;48.636;10.152;2023-07-13T04:04:12;19.80;57.50
30304;DHT22;17112;48.636;10.152;2023-07-13T04:06:38;19.90;57.70
30304;DHT22;17112;48.636;10.152;2023-07-13T04:09:04;19.80;57.70
30304;DHT22;17112;48.636;10.152;2023-07-13T04:11:34;19.80;57.70
30304;DHT22;17112;48.636;10.152;2023-07-13T04:14:02;19.80;57.90
30304;DHT22;17112;48.636;10.152;2023-07-13T04:16:27;19.80;58.10
30304;DHT22;17112;48.636;10.152;2023-07-13T04:18:55;19.80;58.50
30304;DHT22;17112;48.636;10.152;2023-07-13T04:21:25;19.80;58.40
30304;DHT22;17112;48.636;10.152;2023-07-13T04:23:52;19.80;58.20
30304;DHT22;17112;48.636;10.152;2023-07-13T04:26:18;19.80;58.30
30304;DHT22;17112;48.636;10.152;2023-07-13T04:28:47;19.80;58.30
30304;DHT22;17112;48.636;10.152;2023-07-13T04:31:13;19.80;58.40
30304;DHT22;17112;48.636;10.152;2023-07-13T04:33:39;19.90;58.60
30304;DHT22;17112;48.636;10.152;2023-07-13T04:36:05;19.90;58.60
30304;DHT22;17112;48.636;10.152;2023-07-13T04:38:31;19.90;58.50
30304;DHT22;17112;48.636;10.152;2023-07-13T04:41:03;20.00;58.50
30304;DHT22;17112;48.636;10.152;2023-07-13T04:43:30;20.00;58.50
30304;DHT22;17112;48.636;10.152;2023-07-13T04:45:57;20.10;58.60
30304;DHT22;17112;48.636;10.152;2023-07-13T04:48:27;20.10;58.50
30304;DHT22;17112;48.636;10.152;2023-07-13T04:50:57;20.10;58.40
30304;DHT22;17112;48.636;10.152;2023-07-13T04:53:24;20.10;58.20
30304;DHT22;17112;48.636;10.152;2023-07-13T04:55:49;20.20;58.40
30304;DHT22;17112;48.636;10.152;2023-07-13T04:58:15;20.20;58.50
30304;DHT22;17112;48.636;10.152;2023-07-13T05:00:41;20.20;58.80
30304;DHT22;17112;48.636;10.152;2023-07-13T05:03:07;20.20;58.80
30304;DHT22;17112;48.636;10.152;2023-07-13T05:05:33;20.20;58.50
30304;DHT22;17112;48.636;10.152;2023-07-13T05:07:59;20.30;58.60
30304;DHT22;17112;48.636;10.152;2023-07-13T05:10:25;20.30;58.90
30304;DHT22;17112;48.636;10.152;2023-07-13T05:12:51;20.40;59.20
30304;DHT22;17112;48.636;10.152;2023-07-13T05:15:17;20.40;59.10
30304;DHT22;17112;48.636;10.152;2023-07-13T05:17:47;20.40;59.00
30304;DHT22;17112;48.636;10.152;2023-07-13T05:20:13;20.50;58.90
30304;DHT22;17112;48.636;10.152;2023-07-13T05:22:39;20.50;58.90
30304;DHT22;17112;48.636;10.152;2023-07-13T05:25:05;20.60;59.10
30304;DHT22;17112;48.636;10.152;2023-07-13T05:27:32;20.60;59.20
30304;DHT22;17112;48.636;10.152;2023-07-13T05:29:57;20.70;59.30
30304;DHT22;17112;48.636;10.152;2023-07-13T05:32:23;20.70;59.20
30304;DHT22;17112;48.636;10.152;2023-07-13T05:34:49;20.80;59.20
30304;DHT22;17112;48.636;10.152;2023-07-13T05:37:15;20.80;58.90
30304;DHT22;17112;48.636;10.152;2023-07-13T05:39:40;20.90;58.80
30304;DHT22;17112;48.636;10.152;2023-07-13T05:42:06;20.90;58.60
30304;DHT22;17112;48.636;10.152;2023-07-13T05:44:32;20.90;58.40
30304;DHT22;17112;48.636;10.152;2023-07-13T05:46:57;20.90;58.20
30304;DHT22;17112;48.636;10.152;2023-07-13T05:49:23;20.90;58.40
30304;DHT22;17112;48.636;10.152;2023-07-13T05:51:49;20.90;58.50
30304;DHT22;17112;48.636;10.152;2023-07-13T05:54:15;21.00;58.70
30304;DHT22;17112;48.636;10.152;2023-07-13T05:56:41;21.00;58.90
30304;DHT22;17112;48.636;10.152;2023-07-13T05:59:06;21.10;58.50
30304;DHT22;17112;48.636;10.152;2023-07-13T06:01:32;21.10;58.10
30304;DHT22;17112;48.636;10.152;2023-07-13T06:03:58;21.20;58.20
30304;DHT22;17112;48.636;10.152;2023-07-13T06:06:24;21.20;58.20
30304;DHT22;17112;48.636;10.152;2023-07-13T06:08:49;21.30;58.10
30304;DHT22;17112;48.636;10.152;2023-07-13T06:11:21;21.40;58.00
30304;DHT22;17112;48.636;10.152;2023-07-13T06:13:47;21.50;57.60
30304;DHT22;17112;48.636;10.152;2023-07-13T06:16:13;21.70;57.40
30304;DHT22;17112;48.636;10.152;2023-07-13T06:18:40;21.70;57.40
30304;DHT22;17112;48.636;10.152;2023-07-13T06:21:11;21.80;56.90
30304;DHT22;17112;48.636;10.152;2023-07-13T06:23:36;21.80;56.60
30304;DHT22;17112;48.636;10.152;2023-07-13T06:26:03;21.80;56.90
30304;DHT22;17112;48.636;10.152;2023-07-13T06:28:30;21.90;56.60
30304;DHT22;17112;48.636;10.152;2023-07-13T06:30:57;21.90;56.10
30304;DHT22;17112;48.636;10.152;2023-07-13T06:33:23;21.90;55.50
30304;DHT22;17112;48.636;10.152;2023-07-13T06:35:49;21.90;55.10
30304;DHT22;17112;48.636;10.152;2023-07-13T06:38:15;21.90;55.00
30304;DHT22;17112;48.636;10.152;2023-07-13T06:40:41;21.90;54.90
30304;DHT22;17112;48.636;10.152;2023-07-13T06:43:07;21.80;55.00
30304;DHT22;17112;48.636;10.152;2023-07-13T06:45:53;21.80;55.00
30304;DHT22;17112;48.636;10.152;2023-07-13T06:48:20;21.90;54.60
30304;DHT22;17112;48.636;10.152;2023-07-13T06:50:47;22.00;55.20
30304;DHT22;17112;48.636;10.152;2023-07-13T06:53:13;22.10;55.20
30304;DHT22;17112;48.636;10.152;2023-07-13T06:55:39;22.30;55.40
30304;DHT22;17112;48.636;10.152;2023-07-13T06:58:05;22.40;54.80
30304;DHT22;17112;48.636;10.152;2023-07-13T07:00:31;22.60;54.50
30304;DHT22;17112;48.636;10.152;2023-07-13T07:02:57;22.70;53.80
30304;DHT22;17112;48.636;10.152;2023-07-13T07:05:23;22.80;53.60
30304;DHT22;17112;48.636;10.152;2023-07-13T07:07:53;22.90;52.00
30304;DHT22;17112;48.636;10.152;2023-07-13T07:10:20;23.00;50.90
30304;DHT22;17112;48.636;10.152;2023-07-13T07:12:46;23.00;51.20
30304;DHT22;17112;48.636;10.152;2023-07-13T07:15:12;23.00;51.30
30304;DHT22;17112;48.636;10.152;2023-07-13T07:17:38;23.10;51.50
30304;DHT22;17112;48.636;10.152;2023-07-13T07:20:04;23.10;51.00
30304;DHT22;17112;48.636;10.152;2023-07-13T07:22:30;23.20;50.40
30304;DHT22;17112;48.636;10.152;2023-07-13T07:24:57;23.30;49.30
30304;DHT22;17112;48.636;10.152;2023-07-13T07:27:23;23.40;49.20
30304;DHT22;17112;48.636;10.152;2023-07-13T07:29:50;23.40;49.20
30304;DHT22;17112;48.636;10.152;2023-07-13T07:32:16;23.40;48.30
30304;DHT22;17112;48.636;10.152;2023-07-13T07:34:41;23.50;48.80
30304;DHT22;17112;48.636;10.152;2023-07-13T07:37:11;23.60;47.90
30304;DHT22;17112;48.636;10.152;2023-07-13T07:39:37;23.70;48.40
30304;DHT22;17112;48.636;10.152;2023-07-13T07:42:03;23.80;48.60
30304;DHT22;17112;48.636;10.152;2023-07-13T07:44:31;23.90;46.80
30304;DHT22;17112;48.636;10.152;2023-07-13T07:46:56;24.00;46.60
30304;DHT22;17112;48.636;10.152;2023-07-13T07:49:22;24.10;46.70
30304;DHT22;17112;48.636;10.152;2023-07-13T07:51:48;24.20;46.90
30304;DHT22;17112;48.636;10.152;2023-07-13T07:54:14;24.20;46.60
30304;DHT22;17112;48.636;10.152;2023-07-13T07:56:40;24.30;44.90
30304;DHT22;17112;48.636;10.152;2023-07-13T07:59:06;24.30;43.90
30304;DHT22;17112;48.636;10.152;2023-07-13T08:01:31;24.30;43.30
30304;DHT22;17112;48.636;10.152;2023-07-13T08:03:57;24.30;44.00
30304;DHT22;17112;48.636;10.152;2023-07-13T08:06:23;24.30;43.00
30304;DHT22;17112;48.636;10.152;2023-07-13T08:08:49;24.30;43.60
30304;DHT22;17112;48.636;10.152;2023-07-13T08:11:15;24.30;44.90
30304;DHT22;17112;48.636;10.152;2023-07-13T08:13:41;24.30;44.40
30304;DHT22;17112;48.636;10.152;2023-07-13T08:16:07;24.40;44.20
30304;DHT22;17112;48.636;10.152;2023-07-13T08:18:33;24.50;44.10
30304;DHT22;17112;48.636;10.152;2023-07-13T08:21:04;24.60;43.90
30304;DHT22;17112;48.636;10.152;2023-07-13T08:23:29;24.70;43.10
30304;DHT22;17112;48.636;10.152;2023-07-13T08:25:55;24.90;43.60
30304;DHT22;17112;48.636;10.152;2023-07-13T08:28:21;25.00;43.00
30304;DHT22;17112;48.636;10.152;2023-07-13T08:30:48;25.00;42.10
30304;DHT22;17112;48.636;10.152;2023-07-13T08:33:21;25.00;42.30
30304;DHT22;17112;48.636;10.152;2023-07-13T08:35:50;25.10;41.50
30304;DHT22;17112;48.636;10.152;2023-07-13T08:38:16;25.10;42.00
30304;DHT22;17112;48.636;10.152;2023-07-13T08:40:43;25.10;41.20
30304;DHT22;17112;48.636;10.152;2023-07-13T08:43:16;25.10;40.90
30304;DHT22;17112;48.636;10.152;2023-07-13T08:45:54;25.00;40.20
30304;DHT22;17112;48.636;10.152;2023-07-13T08:48:46;25.00;40.00
30304;DHT22;17112;48.636;10.152;2023-07-13T08:56:41;24.80;40.80
30304;DHT22;17112;48.636;10.152;2023-07-13T08:59:15;24.70;42.10
30304;DHT22;17112;48.636;10.152;2023-07-13T09:02:03;24.70;41.40
30304;DHT22;17112;48.636;10.152;2023-07-13T09:05:12;24.70;40.40
30304;DHT22;17112;48.636;10.152;2023-07-13T09:10:40;25.00;41.90
30304;DHT22;17112;48.636;10.152;2023-07-13T09:16:07;25.40;40.60
30304;DHT22;17112;48.636;10.152;2023-07-13T09:18:56;25.40;40.40
30304;DHT22;17112;48.636;10.152;2023-07-13T09:21:29;25.40;37.90
30304;DHT22;17112;48.636;10.152;2023-07-13T09:26:43;25.40;39.50
30304;DHT22;17112;48.636;10.152;2023-07-13T09:29:18;25.50;40.70
30304;DHT22;17112;48.636;10.152;2023-07-13T09:31:50;25.60;40.30
30304;DHT22;17112;48.636;10.152;2023-07-13T09:34:18;25.70;40.20
30304;DHT22;17112;48.636;10.152;2023-07-13T09:36:44;25.80;40.40
30304;DHT22;17112;48.636;10.152;2023-07-13T09:39:26;26.00;40.30
30304;DHT22;17112;48.636;10.152;2023-07-13T09:42:07;26.10;40.30
30304;DHT22;17112;48.636;10.152;2023-07-13T09:44:44;26.20;38.70
30304;DHT22;17112;48.636;10.152;2023-07-13T09:47:18;26.20;37.80
30304;DHT22;17112;48.636;10.152;2023-07-13T09:49:44;26.20;38.70
30304;DHT22;17112;48.636;10.152;2023-07-13T09:52:14;26.20;38.10
30304;DHT22;17112;48.636;10.152;2023-07-13T09:54:43;26.10;38.00
30304;DHT22;17112;48.636;10.152;2023-07-13T09:57:15;26.10;38.40
30304;DHT22;17112;48.636;10.152;2023-07-13T09:59:46;26.10;38.50
30304;DHT22;17112;48.636;10.152;2023-07-13T10:05:11;26.20;40.20
30304;DHT22;17112;48.636;10.152;2023-07-13T10:07:40;26.40;39.50
30304;DHT22;17112;48.636;10.152;2023-07-13T10:10:20;26.70;39.20
30304;DHT22;17112;48.636;10.152;2023-07-13T10:12:47;26.80;38.00
30304;DHT22;17112;48.636;10.152;2023-07-13T10:15:19;26.80;38.00
30304;DHT22;17112;48.636;10.152;2023-07-13T10:17:46;26.80;37.30
30304;DHT22;17112;48.636;10.152;2023-07-13T10:20:12;26.70;37.60
30304;DHT22;17112;48.636;10.152;2023-07-13T10:23:01;26.80;36.90
30304;DHT22;17112;48.636;10.152;2023-07-13T10:25:31;26.70;38.00
30304;DHT22;17112;48.636;10.152;2023-07-13T10:28:32;26.80;38.40
30304;DHT22;17112;48.636;10.152;2023-07-13T10:31:01;26.90;35.80
30304;DHT22;17112;48.636;10.152;2023-07-13T10:33:28;27.00;37.80
30304;DHT22;17112;48.636;10.152;2023-07-13T10:36:12;27.10;37.80
30304;DHT22;17112;48.636;10.152;2023-07-13T10:38:39;27.20;38.10
30304;DHT22;17112;48.636;10.152;2023-07-13T10:41:10;27.30;38.10
30304;DHT22;17112;48.636;10.152;2023-07-13T10:43:44;27.30;37.00
30304;DHT22;17112;48.636;10.152;2023-07-13T10:46:14;27.30;35.60
30304;DHT22;17112;48.636;10.152;2023-07-13T10:48:42;27.40;37.30
30304;DHT22;17112;48.636;10.152;2023-07-13T10:51:10;27.40;37.40
30304;DHT22;17112;48.636;10.152;2023-07-13T10:53:38;27.50;37.30
30304;DHT22;17112;48.636;10.152;2023-07-13T10:58:44;27.60;37.40
30304;DHT22;17112;48.636;10.152;2023-07-13T11:01:16;27.60;35.80
30304;DHT22;17112;48.636;10.152;2023-07-13T11:03:50;27.60;36.00
30304;DHT22;17112;48.636;10.152;2023-07-13T11:08:56;27.80;38.30
30304;DHT22;17112;48.636;10.152;2023-07-13T11:18:51;28.50;36.50
30304;DHT22;17112;48.636;10.152;2023-07-13T11:21:23;28.70;36.70
30304;DHT22;17112;48.636;10.152;2023-07-13T11:24:02;28.80;35.70
30304;DHT22;17112;48.636;10.152;2023-07-13T11:26:46;28.90;34.90
30304;DHT22;17112;48.636;10.152;2023-07-13T11:31:59;28.90;33.90
30304;DHT22;17112;48.636;10.152;2023-07-13T11:34:37;28.80;33.60
30304;DHT22;17112;48.636;10.152;2023-07-13T11:37:03;28.70;32.70
30304;DHT22;17112;48.636;10.152;2023-07-13T11:39:38;28.60;34.30
30304;DHT22;17112;48.636;10.152;2023-07-13T11:42:13;28.70;35.20
30304;DHT22;17112;48.636;10.152;2023-07-13T11:44:51;28.80;34.80
30304;DHT22;17112;48.636;10.152;2023-07-13T11:47:21;28.90;32.60
30304;DHT22;17112;48.636;10.152;2023-07-13T11:49:55;28.90;33.50
30304;DHT22;17112;48.636;10.152;2023-07-13T11:52:43;29.00;32.90
30304;DHT22;17112;48.636;10.152;2023-07-13T11:55:20;29.00;33.20
30304;DHT22;17112;48.636;10.152;2023-07-13T11:57:50;29.10;34.70
30304;DHT22;17112;48.636;10.152;2023-07-13T12:00:21;29.20;35.20
30304;DHT22;17112;48.636;10.152;2023-07-13T12:02:50;29.40;33.20
30304;DHT22;17112;48.636;10.152;2023-07-13T12:05:18;29.60;33.60
30304;DHT22;17112;48.636;10.152;2023-07-13T12:07:44;29.70;32.60
30304;DHT22;17112;48.636;10.152;2023-07-13T12:10:23;29.70;32.40
30304;DHT22;17112;48.636;10.152;2023-07-13T12:12:56;29.70;29.20
30304;DHT22;17112;48.636;10.152;2023-07-13T12:15:23;29.60;31.00
30304;DHT22;17112;48.636;10.152;2023-07-13T12:17:49;29.40;30.90
30304;DHT22;17112;48.636;10.152;2023-07-13T12:20:37;29.20;31.00
30304;DHT22;17112;48.636;10.152;2023-07-13T12:23:06;29.00;31.10
30304;DHT22;17112;48.636;10.152;2023-07-13T12:25:36;28.90;31.00
30304;DHT22;17112;48.636;10.152;2023-07-13T12:28:20;28.80;32.10
30304;DHT22;17112;48.636;10.152;2023-07-13T12:30:48;28.70;31.50
30304;DHT22;17112;48.636;10.152;2023-07-13T12:33:16;28.60;32.10
30304;DHT22;17112;48.636;10.152;2023-07-13T12:35:51;28.60;32.00
30304;DHT22;17112;48.636;10.152;2023-07-13T12:38:18;28.70;32.10
30304;DHT22;17112;48.636;10.152;2023-07-13T12:40:49;28.80;32.90
30304;DHT22;17112;48.636;10.152;2023-07-13T12:43:15;28.80;33.90
30304;DHT22;17112;48.636;10.152;2023-07-13T12:46:01;29.00;33.50
30304;DHT22;17112;48.636;10.152;2023-07-13T12:48:27;29.20;31.00
30304;DHT22;17112;48.636;10.152;2023-07-13T12:50:54;29.30;31.80
30304;DHT22;17112;48.636;10.152;2023-07-13T12:53:29;29.40;31.30
30304;DHT22;17112;48.636;10.152;2023-07-13T12:55:58;29.50;30.40
30304;DHT22;17112;48.636;10.152;2023-07-13T12:58:30;29.60;30.70
30304;DHT22;17112;48.636;10.152;2023-07-13T13:00:58;29.60;30.90
30304;DHT22;17112;48.636;10.152;2023-07-13T13:03:40;29.70;30.80
30304;DHT22;17112;48.636;10.152;2023-07-13T13:06:24;29.70;29.90
30304;DHT22;17112;48.636;10.152;2023-07-13T13:08:53;29.80;32.00
30304;DHT22;17112;48.636;10.152;2023-07-13T13:11:21;30.00;30.80
30304;DHT22;17112;48.636;10.152;2023-07-13T13:13:48;30.00;29.80
30304;DHT22;17112;48.636;10.152;2023-07-13T13:18:53;29.80;29.60
30304;DHT22;17112;48.636;10.152;2023-07-13T13:21:20;29.80;30.00
30304;DHT22;17112;48.636;10.152;2023-07-13T13:23:46;29.80;29.60
30304;DHT22;17112;48.636;10.152;2023-07-13T13:26:15;29.80;28.80
30304;DHT22;17112;48.636;10.152;2023-07-13T13:28:42;29.80;28.20
30304;DHT22;17112;48.636;10.152;2023-07-13T13:31:09;29.80;29.10
30304;DHT22;17112;48.636;10.152;2023-07-13T13:33:38;29.70;29.00
30304;DHT22;17112;48.636;10.152;2023-07-13T13:36:14;29.80;29.70
30304;DHT22;17112;48.636;10.152;2023-07-13T13:38:41;29.90;29.50
30304;DHT22;17112;48.636;10.152;2023-07-13T13:41:11;30.00;29.30
30304;DHT22;17112;48.636;10.152;2023-07-13T13:43:39;30.20;30.00
30304;DHT22;17112;48.636;10.152;2023-07-13T13:46:14;30.30;29.70
30304;DHT22;17112;48.636;10.152;2023-07-13T13:48:41;30.30;28.90
30304;DHT22;17112;48.636;10.152;2023-07-13T13:51:27;30.30;29.60
30304;DHT22;17112;48.636;10.152;2023-07-13T13:53:52;30.20;28.80
30304;DHT22;17112;48.636;10.152;2023-07-13T13:56:19;30.10;28.90
30304;DHT22;17112;48.636;10.152;2023-07-13T13:58:45;30.00;28.80
30304;DHT22;17112;48.636;10.152;2023-07-13T14:01:15;29.90;29.10
30304;DHT22;17112;48.636;10.152;2023-07-13T14:03:41;29.80;29.40
30304;DHT22;17112;48.636;10.152;2023-07-13T14:06:12;29.90;29.40
30304;DHT22;17112;48.636;10.152;2023-07-13T14:08:38;29.90;28.40
30304;DHT22;17112;48.636;10.152;2023-07-13T14:11:04;30.00;28.90
30304;DHT22;17112;48.636;10.152;2023-07-13T14:13:37;30.20;29.90
30304;DHT22;17112;48.636;10.152;2023-07-13T14:16:15;30.40;29.60
30304;DHT22;17112;48.636;10.152;2023-07-13T14:18:43;30.60;28.40
30304;DHT22;17112;48.636;10.152;2023-07-13T14:21:18;30.70;28.10
30304;DHT22;17112;48.636;10.152;2023-07-13T14:23:45;30.80;28.50
30304;DHT22;17112;48.636;10.152;2023-07-13T14:26:19;30.80;28.40
30304;DHT22;17112;48.636;10.152;2023-07-13T14:28:46;30.80;27.50
30304;DHT22;17112;48.636;10.152;2023-07-13T14:31:14;30.80;28.00
30304;DHT22;17112;48.636;10.152;2023-07-13T14:33:40;30.80;29.30
30304;DHT22;17112;48.636;10.152;2023-07-13T14:38:51;31.00;28.20
30304;DHT22;17112;48.636;10.152;2023-07-13T14:41:16;31.20;28.60
30304;DHT22;17112;48.636;10.152;2023-07-13T14:43:42;31.50;28.60
30304;DHT22;17112;48.636;10.152;2023-07-13T14:46:21;31.60;27.90
30304;DHT22;17112;48.636;10.152;2023-07-13T14:48:50;31.70;26.10
30304;DHT22;17112;48.636;10.152;2023-07-13T14:51:15;31.70;27.00
30304;DHT22;17112;48.636;10.152;2023-07-13T14:53:41;31.70;27.50
30304;DHT22;17112;48.636;10.152;2023-07-13T14:56:11;31.70;26.70
30304;DHT22;17112;48.636;10.152;2023-07-13T14:58:37;31.70;27.00
30304;DHT22;17112;48.636;10.152;2023-07-13T15:01:12;31.70;26.60
30304;DHT22;17112;48.636;10.152;2023-07-13T15:03:42;31.70;27.00
30304;DHT22;17112;48.636;10.152;2023-07-13T15:06:11;31.70;26.40
30304;DHT22;17112;48.636;10.152;2023-07-13T15:08:37;31.70;26.50
30304;DHT22;17112;48.636;10.152;2023-07-13T15:11:03;31.60;26.30
30304;DHT22;17112;48.636;10.152;2023-07-13T15:13:30;31.50;26.70
30304;DHT22;17112;48.636;10.152;2023-07-13T15:15:56;31.20;26.70
30304;DHT22;17112;48.636;10.152;2023-07-13T15:18:24;31.10;26.80
30304;DHT22;17112;48.636;10.152;2023-07-13T15:20:51;30.90;26.90
30304;DHT22;17112;48.636;10.152;2023-07-13T15:23:22;30.80;27.80
30304;DHT22;17112;48.636;10.152;2023-07-13T15:25:51;30.80;28.00
30304;DHT22;17112;48.636;10.152;2023-07-13T15:28:17;30.80;27.70
30304;DHT22;17112;48.636;10.152;2023-07-13T15:30:45;30.90;27.50
30304;DHT22;17112;48.636;10.152;2023-07-13T15:35:37;30.90;27.40
30304;DHT22;17112;48.636;10.152;2023-07-13T15:38:13;30.90;27.30
30304;DHT22;17112;48.636;10.152;2023-07-13T15:40:39;30.90;26.90
30304;DHT22;17112;48.636;10.152;2023-07-13T15:43:13;30.80;27.00
30304;DHT22;17112;48.636;10.152;2023-07-13T15:45:39;30.60;27.30
30304;DHT22;17112;48.636;10.152;2023-07-13T15:48:22;30.60;27.80
30304;DHT22;17112;48.636;10.152;2023-07-13T15:50:54;30.70;27.70
30304;DHT22;17112;48.636;10.152;2023-07-13T15:53:23;30.80;27.60
30304;DHT22;17112;48.636;10.152;2023-07-13T15:55:49;30.90;27.60
30304;DHT22;17112;48.636;10.152;2023-07-13T15:58:15;30.90;27.40
30304;DHT22;17112;48.636;10.152;2023-07-13T16:00:42;30.90;27.50
30304;DHT22;17112;48.636;10.152;2023-07-13T16:03:08;30.90;27.30
30304;DHT22;17112;48.636;10.152;2023-07-13T16:05:34;31.10;27.50
30304;DHT22;17112;48.636;10.152;2023-07-13T16:08:01;31.30;27.30
30304;DHT22;17112;48.636;10.152;2023-07-13T16:10:33;31.40;26.90
30304;DHT22;17112;48.636;10.152;2023-07-13T16:12:59;31.60;27.00